Time;durP1;ratioP1;P1;durP2;ratioP2;P2;SDS_P1;SDS_P2;PMS_P1;PMS_P2;Temp;Humidity;BMP_temperature;BMP_pressure;BME280_temperature;BME280_humidity;BME280_pressure;Samples;Min_cycle;Max_cycle;Signal;HPM_P1;HPM_P2
2021/08/08 00:00:24;;;;;;;5.03;1.13;;;;;;;14.25;100.00;99272.47;4938068;29;20024;-81
2021/08/08 00:02:49;;;;;;;4.50;1.48;;;;;;;14.29;100.00;99274.00;4938608;29;20441;-82
2021/08/08 00:05:14;;;;;;;4.63;1.25;;;;;;;14.19;100.00;99270.19;4953877;29;20396;-81
2021/08/08 00:07:41;;;;;;;5.68;1.45;;;;;;;14.13;100.00;99268.78;4939134;29;20094;-82
2021/08/08 00:10:09;;;;;;;5.38;1.40;;;;;;;13.97;100.00;99270.50;4938871;29;20078;-81
2021/08/08 00:12:36;;;;;;;4.15;1.10;;;;;;;14.03;100.00;99273.63;4952835;29;20385;-81
2021/08/08 00:15:03;;;;;;;5.35;1.52;;;;;;;14.00;100.00;99268.56;4938175;29;20032;-81
2021/08/08 00:17:29;;;;;;;6.55;1.48;;;;;;;13.92;100.00;99256.88;4952836;29;20481;-82
2021/08/08 00:19:54;;;;;;;6.55;1.58;;;;;;;13.90;100.00;99250.91;4938391;29;20059;-82
2021/08/08 00:22:20;;;;;;;5.80;1.70;;;;;;;13.91;100.00;99252.56;4952917;29;20027;-82
2021/08/08 00:24:45;;;;;;;5.65;1.35;;;;;;;13.91;100.00;99250.81;4951987;29;20039;-82
2021/08/08 00:27:10;;;;;;;4.32;1.40;;;;;;;13.84;100.00;99249.44;4952125;29;20126;-82
2021/08/08 00:29:35;;;;;;;6.93;1.95;;;;;;;13.81;100.00;99250.44;4952072;28;20024;-81
2021/08/08 00:32:01;;;;;;;6.10;1.65;;;;;;;13.78;100.00;99254.97;4952100;29;20527;-81
2021/08/08 00:34:26;;;;;;;4.10;1.45;;;;;;;13.76;100.00;99254.22;4937009;29;20444;-81
2021/08/08 00:36:52;;;;;;;6.90;1.45;;;;;;;13.74;100.00;99251.69;4951990;29;20031;-82
2021/08/08 00:39:17;;;;;;;4.82;1.73;;;;;;;13.72;100.00;99261.34;4952572;28;20118;-82
2021/08/08 00:41:43;;;;;;;8.05;1.65;;;;;;;13.67;100.00;99265.97;4952712;29;20408;-81
2021/08/08 00:44:09;;;;;;;5.13;1.50;;;;;;;13.56;100.00;99266.50;4937560;29;20031;-81
2021/08/08 00:46:34;;;;;;;6.30;1.63;;;;;;;13.54;100.00;99273.56;4935861;29;20032;-81
2021/08/08 00:49:00;;;;;;;5.40;1.50;;;;;;;13.50;100.00;99276.41;4952283;28;20035;-81
2021/08/08 00:51:31;;;;;;;6.10;1.48;;;;;;;13.47;100.00;99277.41;4936023;29;20433;-81
2021/08/08 00:53:56;;;;;;;5.47;1.60;;;;;;;13.43;100.00;99281.09;4936156;29;20064;-81
2021/08/08 00:56:22;;;;;;;4.32;1.33;;;;;;;13.42;100.00;99271.56;4937416;29;20036;-81
2021/08/08 00:58:47;;;;;;;6.72;1.40;;;;;;;13.34;100.00;99271.13;4937670;29;20024;-81
2021/08/08 01:01:16;;;;;;;4.10;1.67;;;;;;;13.25;100.00;99271.59;4937999;29;20036;-81
2021/08/08 01:03:43;;;;;;;5.25;1.35;;;;;;;13.26;100.00;99271.50;4935347;29;20082;-81
2021/08/08 01:06:21;;;;;;;4.20;1.52;;;;;;;13.23;100.00;99268.19;4935295;29;20028;-81
2021/08/08 01:08:53;;;;;;;5.90;1.60;;;;;;;13.19;100.00;99272.72;4936230;29;20078;-81
2021/08/08 01:11:20;;;;;;;6.70;1.50;;;;;;;13.19;100.00;99270.09;4940501;29;20106;-81
2021/08/08 01:13:47;;;;;;;7.03;1.60;;;;;;;13.17;100.00;99271.94;4939178;29;20031;-81
2021/08/08 01:16:14;;;;;;;6.70;1.60;;;;;;;13.16;100.00;99283.28;4940333;29;20039;-81
2021/08/08 01:18:41;;;;;;;8.07;1.88;;;;;;;13.06;100.00;99282.88;4939897;29;20028;-81
2021/08/08 01:21:08;;;;;;;8.65;1.90;;;;;;;13.04;100.00;99279.50;4940174;29;20488;-81
2021/08/08 01:23:35;;;;;;;6.70;1.60;;;;;;;13.04;100.00;99284.72;4938766;29;20032;-81
2021/08/08 01:26:01;;;;;;;4.05;1.45;;;;;;;13.04;100.00;99284.72;4938892;29;20167;-81
2021/08/08 01:28:27;;;;;;;8.88;1.85;;;;;;;13.04;100.00;99286.47;4940145;29;20059;-81
2021/08/08 01:30:52;;;;;;;6.20;1.98;;;;;;;13.09;100.00;99290.56;4940162;29;20032;-81
2021/08/08 01:33:17;;;;;;;5.25;1.70;;;;;;;13.08;100.00;99288.88;4955048;29;20031;-81
2021/08/08 01:35:43;;;;;;;4.82;1.80;;;;;;;13.10;100.00;99288.78;4954695;29;20087;-81
2021/08/08 01:38:09;;;;;;;4.57;1.45;;;;;;;13.13;100.00;99280.81;4955040;28;20028;-81
2021/08/08 01:40:45;;;;;;;5.65;1.60;;;;;;;13.16;100.00;99292.84;4939076;29;20087;-82
2021/08/08 01:43:14;;;;;;;9.60;2.00;;;;;;;13.15;100.00;99281.59;4941084;29;20028;-82
2021/08/08 01:45:41;;;;;;;6.80;2.28;;;;;;;13.19;100.00;99284.88;4940091;29;20046;-82
2021/08/08 01:48:10;;;;;;;4.80;1.60;;;;;;;13.22;100.00;99276.94;4955560;28;20028;-81
2021/08/08 01:50:36;;;;;;;7.20;1.80;;;;;;;13.20;100.00;99284.78;4938766;29;20377;-81
2021/08/08 01:53:02;;;;;;;6.03;1.60;;;;;;;13.19;100.00;99269.28;4938748;29;20108;-81
2021/08/08 01:55:29;;;;;;;5.15;1.73;;;;;;;13.22;100.00;99271.72;4940133;29;20027;-81
2021/08/08 01:57:55;;;;;;;5.82;1.67;;;;;;;13.29;100.00;99273.97;4955452;28;20027;-81
2021/08/08 02:00:23;;;;;;;5.82;1.70;;;;;;;13.27;100.00;99274.94;4941019;29;20028;-82
2021/08/08 02:02:52;;;;;;;5.28;1.60;;;;;;;13.22;100.00;99272.56;4938961;29;20027;-82
2021/08/08 02:05:19;;;;;;;7.47;1.50;;;;;;;13.23;100.00;99279.44;4939107;29;20061;-81
2021/08/08 02:07:44;;;;;;;3.42;1.10;;;;;;;13.23;100.00;99281.19;4939337;29;20388;-81
2021/08/08 02:10:10;;;;;;;5.18;1.65;;;;;;;13.19;100.00;99282.28;4955330;29;20027;-81
2021/08/08 02:12:35;;;;;;;6.35;1.45;;;;;;;13.25;100.00;99274.19;4940493;29;20098;-81
2021/08/08 02:15:00;;;;;;;3.72;1.27;;;;;;;13.22;100.00;99279.53;4940064;29;20469;-81
2021/08/08 02:17:25;;;;;;;3.53;1.20;;;;;;;13.20;100.00;99277.00;4955386;29;20031;-81
2021/08/08 02:19:50;;;;;;;4.35;1.15;;;;;;;13.14;100.00;99285.94;4954215;28;20122;-81
2021/08/08 02:22:16;;;;;;;5.68;1.20;;;;;;;13.28;100.00;99280.09;4954877;29;20476;-81
2021/08/08 02:24:41;;;;;;;4.57;1.30;;;;;;;13.29;100.00;99283.53;4940571;29;20031;-81
2021/08/08 02:27:06;;;;;;;5.10;1.30;;;;;;;13.21;100.00;99290.84;4955566;29;20039;-81
2021/08/08 02:29:32;;;;;;;5.75;1.30;;;;;;;13.24;100.00;99286.34;4955572;28;20020;-81
2021/08/08 02:31:57;;;;;;;4.82;1.27;;;;;;;13.15;100.00;99284.19;4941207;29;20027;-81
2021/08/08 02:34:22;;;;;;;5.88;1.38;;;;;;;13.12;100.00;99285.19;4955855;29;20027;-82
2021/08/08 02:36:47;;;;;;;5.03;1.27;;;;;;;13.13;100.00;99284.25;4956021;29;20024;-82
2021/08/08 02:39:13;;;;;;;7.88;1.35;;;;;;;13.20;100.00;99284.78;4940747;29;20079;-81
2021/08/08 02:41:38;;;;;;;5.03;1.17;;;;;;;13.27;100.00;99285.38;4956796;29;20035;-82
2021/08/08 02:44:04;;;;;;;4.15;1.20;;;;;;;13.33;100.00;99295.47;4942335;29;20481;-82
2021/08/08 02:46:29;;;;;;;5.53;1.48;;;;;;;13.31;100.00;99292.13;4937159;29;20115;-81
2021/08/08 02:48:55;;;;;;;6.13;1.70;;;;;;;13.22;100.00;99292.53;4938516;29;20440;-81
2021/08/08 02:51:20;;;;;;;4.72;1.40;;;;;;;13.20;100.00;99297.81;4938652;29;20031;-81
2021/08/08 02:53:46;;;;;;;6.00;1.40;;;;;;;13.19;100.00;99295.31;4938360;29;20130;-81
2021/08/08 02:56:11;;;;;;;5.18;1.40;;;;;;;13.26;100.00;99299.31;4938510;29;20036;-81
2021/08/08 02:58:36;;;;;;;5.22;1.58;;;;;;;13.26;100.00;99299.31;4938253;29;20051;-81
2021/08/08 03:01:04;;;;;;;6.57;1.63;;;;;;;13.20;100.00;99307.41;4952687;29;20114;-81
2021/08/08 03:03:33;;;;;;;4.55;1.48;;;;;;;13.20;100.00;99305.63;4952840;29;20122;-81
2021/08/08 03:05:59;;;;;;;4.72;1.33;;;;;;;13.12;100.00;99311.22;4938302;29;20028;-81
2021/08/08 03:08:25;;;;;;;7.05;1.83;;;;;;;13.08;100.00;99311.44;4980406;22;20069;-81
2021/08/08 03:10:50;;;;;;;3.42;1.30;;;;;;;13.03;100.00;99309.06;4957767;29;20031;-81
2021/08/08 03:13:15;;;;;;;7.38;1.35;;;;;;;13.04;100.00;99312.50;4958666;28;20051;-81
2021/08/08 03:15:41;;;;;;;4.55;1.20;;;;;;;13.07;100.00;99307.16;4957271;29;20408;-81
2021/08/08 03:18:07;;;;;;;7.18;1.80;;;;;;;13.10;100.00;99318.25;4957344;28;20119;-81
2021/08/08 03:20:32;;;;;;;4.03;1.70;;;;;;;13.17;100.00;99316.19;4957746;29;20062;-81
2021/08/08 03:22:57;;;;;;;4.70;1.77;;;;;;;13.19;100.00;99321.34;4958632;28;20490;-81
2021/08/08 03:25:23;;;;;;;5.10;1.40;;;;;;;13.19;100.00;99318.75;4958759;28;20100;-81
2021/08/08 03:27:50;;;;;;;6.45;1.92;;;;;;;13.12;100.00;99313.81;4957505;28;20027;-81
2021/08/08 03:30:16;;;;;;;9.00;1.80;;;;;;;13.18;100.00;99311.81;4956652;29;20110;-81
2021/08/08 03:32:41;;;;;;;5.05;1.90;;;;;;;13.13;100.00;99320.72;4956370;28;20503;-81
2021/08/08 03:35:07;;;;;;;5.65;1.80;;;;;;;13.11;100.00;99319.94;4957012;29;20024;-81
2021/08/08 03:37:32;;;;;;;5.70;1.83;;;;;;;13.16;100.00;99322.31;4956998;29;20054;-81
2021/08/08 03:39:58;;;;;;;4.20;1.70;;;;;;;13.11;100.00;99327.75;4958374;28;20027;-81
2021/08/08 03:42:23;;;;;;;5.93;1.83;;;;;;;13.11;100.00;99327.75;4956486;29;20034;-81
2021/08/08 03:44:50;;;;;;;5.85;2.10;;;;;;;13.07;100.00;99327.97;4958058;28;20462;-81
2021/08/08 03:47:17;;;;;;;5.85;2.10;;;;;;;13.09;100.00;99327.00;4956622;29;20027;-81
2021/08/08 03:49:42;;;;;;;4.47;1.88;;;;;;;13.16;100.00;99324.09;4956594;28;20518;-81
2021/08/08 03:52:09;;;;;;;5.05;1.60;;;;;;;13.24;100.00;99332.34;4957766;28;20062;-81
2021/08/08 03:54:34;;;;;;;6.20;1.63;;;;;;;13.24;100.00;99329.75;4956774;29;20034;-81
2021/08/08 03:56:59;;;;;;;6.43;1.70;;;;;;;13.25;100.00;99331.50;4956562;29;20035;-81
2021/08/08 03:59:25;;;;;;;6.68;2.08;;;;;;;13.26;100.00;99335.75;4957964;28;20030;-81
2021/08/08 04:01:50;;;;;;;5.03;1.80;;;;;;;13.18;100.00;99337.84;4957667;28;20038;-81
2021/08/08 04:04:15;;;;;;;6.70;1.70;;;;;;;13.19;100.00;99331.75;4957967;28;20034;-81
2021/08/08 04:06:40;;;;;;;3.90;1.42;;;;;;;13.25;100.00;99339.28;4955854;29;20110;-81
2021/08/08 04:09:05;;;;;;;7.50;1.73;;;;;;;13.28;100.00;99326.97;4955184;28;20555;-81
2021/08/08 04:11:31;;;;;;;8.43;2.13;;;;;;;13.25;100.00;99339.28;4954388;29;20026;-81
2021/08/08 04:13:56;;;;;;;4.65;1.60;;;;;;;13.32;100.00;99325.06;4955836;28;20062;-81
2021/08/08 04:16:21;;;;;;;5.30;1.60;;;;;;;13.35;100.00;99335.31;4956055;28;20027;-81
2021/08/08 04:18:47;;;;;;;7.03;1.60;;;;;;;13.38;100.00;99335.16;4954045;28;20041;-81
2021/08/08 04:21:12;;;;;;;4.57;1.55;;;;;;;13.42;100.00;99331.47;4955282;28;20449;-81
2021/08/08 04:23:38;;;;;;;5.18;1.40;;;;;;;13.45;100.00;99333.94;4953936;29;20117;-81
2021/08/08 04:26:03;;;;;;;7.97;1.48;;;;;;;13.53;100.00;99336.16;4953990;29;20027;-81
2021/08/08 04:28:29;;;;;;;5.53;1.20;;;;;;;13.59;100.00;99343.69;4955154;28;20031;-81
2021/08/08 04:30:54;;;;;;;3.28;1.20;;;;;;;13.65;100.00;99343.38;4953992;29;20056;-81
2021/08/08 04:33:19;;;;;;;6.60;1.35;;;;;;;13.66;100.00;99334.63;4955211;28;20051;-81
2021/08/08 04:35:45;;;;;;;6.45;1.48;;;;;;;13.74;100.00;99352.50;4953962;29;20023;-81
2021/08/08 04:38:10;;;;;;;5.25;1.52;;;;;;;13.75;100.00;99346.34;4954684;28;20023;-82
2021/08/08 04:40:36;;;;;;;6.90;1.60;;;;;;;13.71;100.00;99352.66;4954167;29;20047;-81
2021/08/08 04:43:05;;;;;;;4.47;1.33;;;;;;;13.78;100.00;99346.19;4953883;28;20103;-82
2021/08/08 04:45:31;;;;;;;4.85;1.35;;;;;;;13.83;100.00;99346.81;4957643;29;20031;-82
2021/08/08 04:47:56;;;;;;;5.07;1.45;;;;;;;13.82;100.00;99342.50;4957837;28;20500;-81
2021/08/08 04:50:22;;;;;;;8.90;1.30;;;;;;;13.79;100.00;99345.25;4957756;29;20055;-81
2021/08/08 04:52:48;;;;;;;3.70;1.30;;;;;;;13.84;100.00;99343.28;4957822;29;20032;-82
2021/08/08 04:55:14;;;;;;;5.57;1.38;;;;;;;13.77;100.00;99347.13;4957660;28;20051;-82
2021/08/08 04:57:39;;;;;;;5.53;1.30;;;;;;;13.78;100.00;99343.59;4957764;29;20034;-82
2021/08/08 05:00:06;;;;;;;4.07;1.25;;;;;;;13.78;100.00;99343.59;4958796;28;20469;-81
2021/08/08 05:02:31;;;;;;;5.40;1.20;;;;;;;13.79;100.00;99345.25;4957308;29;20031;-82
2021/08/08 05:04:56;;;;;;;4.85;1.40;;;;;;;13.76;100.00;99353.25;4958356;29;20077;-82
2021/08/08 05:07:22;;;;;;;5.97;1.30;;;;;;;13.84;100.00;99355.47;4958875;28;20073;-82
2021/08/08 05:09:47;;;;;;;4.25;1.25;;;;;;;13.84;100.00;99353.69;4958567;28;20039;-82
2021/08/08 05:12:12;;;;;;;4.70;1.33;;;;;;;13.95;100.00;99361.00;4957356;29;20024;-82
2021/08/08 05:14:38;;;;;;;5.07;1.27;;;;;;;13.99;100.00;99357.28;4957366;29;20027;-82
2021/08/08 05:17:04;;;;;;;4.82;1.20;;;;;;;14.00;100.00;99345.94;4958457;28;20028;-82
2021/08/08 05:19:30;;;;;;;2.92;1.10;;;;;;;14.16;100.00;99345.97;4958366;28;20034;-82
2021/08/08 05:21:55;;;;;;;4.88;1.40;;;;;;;14.36;100.00;99351.00;4957082;29;20026;-82
2021/08/08 05:24:21;;;;;;;4.50;1.55;;;;;;;14.57;100.00;99353.41;4957253;29;20462;-82
2021/08/08 05:26:47;;;;;;;5.35;1.70;;;;;;;14.43;100.00;99362.78;4957035;29;20122;-82
2021/08/08 05:29:12;;;;;;;6.05;1.42;;;;;;;14.27;100.00;99362.75;4957621;28;20126;-82
2021/08/08 05:31:38;;;;;;;5.20;1.40;;;;;;;14.05;100.00;99365.63;4957011;29;20026;-82
2021/08/08 05:34:04;;;;;;;4.60;1.63;;;;;;;14.00;100.00;99374.59;4957015;29;20037;-81
2021/08/08 05:36:29;;;;;;;3.92;1.30;;;;;;;13.80;100.00;99379.09;4958566;28;20433;-82
2021/08/08 05:38:54;;;;;;;5.22;1.63;;;;;;;13.70;100.00;99363.97;4958155;28;20381;-82
2021/08/08 05:41:20;;;;;;;6.30;1.77;;;;;;;13.49;100.00;99379.78;4958224;28;20499;-82
2021/08/08 05:43:45;;;;;;;5.65;1.60;;;;;;;13.39;100.00;99381.13;4956980;29;20031;-82
2021/08/08 05:46:10;;;;;;;5.65;1.65;;;;;;;13.35;100.00;99383.03;4957989;28;20033;-82
2021/08/08 05:48:36;;;;;;;4.65;1.88;;;;;;;13.32;100.00;99374.53;4956826;28;20031;-82
2021/08/08 05:51:01;;;;;;;4.95;1.70;;;;;;;13.31;100.00;99385.88;4958199;28;20435;-82
2021/08/08 05:53:26;;;;;;;3.80;1.80;;;;;;;13.27;100.00;99393.00;4957978;28;20053;-82
2021/08/08 05:55:51;;;;;;;5.68;1.83;;;;;;;13.35;100.00;99395.22;4956541;28;20034;-82
2021/08/08 05:58:17;;;;;;;5.00;2.13;;;;;;;13.32;100.00;99388.38;4956529;28;20519;-82
2021/08/08 06:00:42;;;;;;;4.28;1.98;;;;;;;13.42;100.00;99396.59;4956965;29;20023;-82
2021/08/08 06:03:11;;;;;;;5.05;2.05;;;;;;;13.48;100.00;99403.28;4959243;28;20070;-82
2021/08/08 06:05:37;;;;;;;4.10;1.75;;;;;;;13.39;100.00;99398.50;4958251;29;20435;-81
2021/08/08 06:08:03;;;;;;;4.55;1.60;;;;;;;13.32;100.00;99388.38;4957928;28;20122;-82
2021/08/08 06:10:29;;;;;;;5.22;1.90;;;;;;;13.30;100.00;99398.06;4959149;28;20506;-82
2021/08/08 06:12:54;;;;;;;4.43;2.05;;;;;;;13.35;100.00;99409.06;4957449;29;20019;-82
2021/08/08 06:15:19;;;;;;;6.63;1.98;;;;;;;13.47;100.00;99405.03;4957540;29;20444;-81
2021/08/08 06:17:45;;;;;;;4.15;1.67;;;;;;;13.44;100.00;99410.41;4958844;28;20030;-81
2021/08/08 06:20:10;;;;;;;4.80;1.60;;;;;;;13.49;100.00;99408.44;4958970;28;20365;-81
2021/08/08 06:22:36;;;;;;;5.90;2.28;;;;;;;13.53;100.00;99417.75;4957304;29;20024;-81
2021/08/08 06:25:02;;;;;;;4.65;2.08;;;;;;;13.52;100.00;99413.47;4957589;29;20054;-81
2021/08/08 06:27:27;;;;;;;5.30;2.33;;;;;;;13.80;100.00;99414.72;4957138;29;20027;-81
2021/08/08 06:29:52;;;;;;;4.18;2.10;;;;;;;13.89;100.00;99411.66;4957999;28;20034;-81
2021/08/08 06:32:18;;;;;;;5.45;2.10;;;;;;;13.71;100.00;99420.41;4957730;29;20106;-81
2021/08/08 06:34:43;;;;;;;6.57;2.47;;;;;;;13.72;100.00;99419.47;4958848;29;20374;-81
2021/08/08 06:37:09;;;;;;;6.95;2.63;;;;;;;13.76;100.00;99428.81;4957725;29;20027;-81
2021/08/08 06:39:35;;;;;;;7.05;2.08;;;;;;;13.67;100.00;99432.75;4957423;28;20031;-81
2021/08/08 06:42:00;;;;;;;4.97;2.38;;;;;;;13.75;100.00;99432.34;4958454;29;20054;-82
2021/08/08 06:44:28;;;;;;;4.43;1.95;;;;;;;13.79;100.00;99434.75;4959003;29;20117;-82
2021/08/08 06:46:53;;;;;;;5.57;2.22;;;;;;;13.76;100.00;99439.25;4958204;29;20031;-81
2021/08/08 06:49:18;;;;;;;4.53;2.00;;;;;;;13.70;100.00;99439.53;4958209;28;20024;-82
2021/08/08 06:51:43;;;;;;;5.53;2.50;;;;;;;13.93;100.00;99431.44;4957420;29;20023;-81
2021/08/08 06:54:09;;;;;;;5.97;2.60;;;;;;;14.17;100.00;99436.34;4959226;28;20522;-81
2021/08/08 06:56:34;;;;;;;5.80;2.38;;;;;;;14.23;100.00;99439.47;4959164;28;20059;-81
2021/08/08 06:58:59;;;;;;;6.63;2.30;;;;;;;14.25;100.00;99439.38;4957592;28;20027;-81
2021/08/08 07:01:25;;;;;;;4.93;2.58;;;;;;;14.42;100.00;99435.91;4957485;28;20027;-82
2021/08/08 07:03:50;;;;;;;6.00;2.30;;;;;;;14.77;100.00;99441.06;4958587;28;20031;-81
2021/08/08 07:06:15;;;;;;;4.90;2.60;;;;;;;14.96;100.00;99439.13;4958522;28;20470;-81
2021/08/08 07:08:40;;;;;;;5.75;2.65;;;;;;;15.27;100.00;99438.34;4958600;28;20027;-83
2021/08/08 07:11:06;;;;;;;4.70;2.70;;;;;;;15.26;100.00;99446.22;4958647;29;20070;-83
2021/08/08 07:13:31;;;;;;;6.15;2.50;;;;;;;15.00;100.00;99451.13;4958437;29;20029;-83
2021/08/08 07:15:56;;;;;;;4.80;2.50;;;;;;;14.81;100.00;99447.78;4959634;29;20031;-83
2021/08/08 07:18:21;;;;;;;7.85;2.55;;;;;;;14.80;100.00;99454.78;4960258;28;20031;-82
2021/08/08 07:20:47;;;;;;;5.38;2.58;;;;;;;14.71;100.00;99450.06;4959089;28;20181;-82
2021/08/08 07:23:12;;;;;;;6.03;2.80;;;;;;;14.69;100.00;99463.22;4957226;29;20041;-82
2021/08/08 07:25:37;;;;;;;5.90;2.30;;;;;;;14.56;100.00;99462.16;4959286;28;20030;-82
2021/08/08 07:28:03;;;;;;;6.55;2.53;;;;;;;14.58;100.00;99459.47;4958324;28;20031;-82
2021/08/08 07:30:28;;;;;;;7.13;2.95;;;;;;;14.51;100.00;99466.78;4956597;29;20031;-82
2021/08/08 07:32:53;;;;;;;5.05;2.40;;;;;;;14.44;100.00;99458.41;4958334;28;20026;-82
2021/08/08 07:35:18;;;;;;;5.47;2.40;;;;;;;14.55;100.00;99465.69;4958493;28;20086;-82
2021/08/08 07:37:44;;;;;;;5.40;2.15;;;;;;;14.50;100.00;99465.91;4957389;29;20095;-82
2021/08/08 07:40:10;;;;;;;7.82;2.65;;;;;;;14.43;100.00;99472.34;4958994;28;20051;-82
2021/08/08 07:42:35;;;;;;;5.68;2.50;;;;;;;14.43;100.00;99479.34;4957967;28;20042;-82
2021/08/08 07:45:00;;;;;;;5.35;2.42;;;;;;;14.31;100.00;99479.97;4956416;29;20026;-82
2021/08/08 07:47:25;;;;;;;6.68;2.58;;;;;;;14.19;100.00;99477.06;4958196;28;20023;-82
2021/08/08 07:49:51;;;;;;;5.20;2.78;;;;;;;14.17;100.00;99491.09;4957528;28;20488;-83
2021/08/08 07:52:16;;;;;;;6.57;3.03;;;;;;;14.18;100.00;99477.13;4957125;29;20106;-82
2021/08/08 07:54:41;;;;;;;6.32;3.30;;;;;;;14.35;100.00;99489.34;4958881;28;20543;-83
2021/08/08 07:57:07;;;;;;;6.80;2.75;;;;;;;14.44;100.00;99497.53;4957757;28;20063;-82
2021/08/08 07:59:32;;;;;;;7.50;3.30;;;;;;;14.48;100.00;99514.72;4958027;28;20419;-82
2021/08/08 08:01:58;;;;;;;6.93;3.42;;;;;;;14.77;100.00;99517.59;4956765;29;20031;-82
2021/08/08 08:04:25;;;;;;;7.85;3.47;;;;;;;14.68;100.00;99518.06;4956994;29;20027;-82
2021/08/08 08:06:50;;;;;;;7.05;3.13;;;;;;;14.53;100.00;99519.72;4956773;29;20082;-82
2021/08/08 08:09:15;;;;;;;6.25;3.40;;;;;;;14.54;100.00;99520.56;4959132;28;20415;-83
2021/08/08 08:11:42;;;;;;;5.90;3.35;;;;;;;14.60;100.00;99525.47;4957991;29;20509;-83
2021/08/08 08:14:09;;;;;;;6.32;3.17;;;;;;;14.55;100.00;99533.53;4959405;28;20107;-82
2021/08/08 08:16:35;;;;;;;7.03;3.30;;;;;;;14.61;100.00;99538.44;4959085;28;20027;-82
2021/08/08 08:19:00;;;;;;;8.32;3.13;;;;;;;14.60;100.00;99536.75;4958259;28;20491;-82
2021/08/08 08:21:25;;;;;;;7.43;2.92;;;;;;;14.64;100.00;99542.66;4957785;29;20062;-82
2021/08/08 08:23:51;;;;;;;7.13;3.00;;;;;;;14.84;100.00;99547.72;4959706;28;20044;-82
2021/08/08 08:26:16;;;;;;;7.28;3.42;;;;;;;14.92;100.00;99549.91;4958182;29;20069;-83
2021/08/08 08:28:41;;;;;;;10.55;3.88;;;;;;;14.88;100.00;99546.63;4958642;28;20031;-83
2021/08/08 08:31:08;;;;;;;8.70;3.47;;;;;;;15.10;100.00;99555.94;4957840;29;20038;-83
2021/08/08 08:33:33;;;;;;;9.52;3.42;;;;;;;15.11;100.00;99555.00;4956939;29;20038;-82
2021/08/08 08:35:58;;;;;;;7.85;3.60;;;;;;;15.26;100.00;99577.69;4957819;28;20023;-82
2021/08/08 08:38:24;;;;;;;6.97;3.08;;;;;;;15.24;100.00;99565.63;4956199;28;20026;-82
2021/08/08 08:40:49;;;;;;;8.52;3.90;;;;;;;15.39;100.00;99578.75;4957843;28;20054;-82
2021/08/08 08:43:15;;;;;;;11.55;3.70;;;;;;;15.50;100.00;99580.75;4957781;28;20027;-82
2021/08/08 08:45:43;;;;;;;9.23;3.72;;;;;;;15.47;100.00;99580.09;4958011;28;20131;-82
2021/08/08 08:48:10;;;;;;;9.02;3.38;;;;;;;15.27;100.00;99594.19;4956583;28;20023;-82
2021/08/08 08:50:36;;;;;;;7.68;3.05;;;;;;;15.07;100.00;99597.88;4957577;28;20026;-82
2021/08/08 08:53:03;;;;;;;10.18;4.10;;;;;;;15.12;100.00;99596.72;4955507;29;20023;-82
2021/08/08 08:55:29;;;;;;;10.18;3.85;;;;;;;15.30;100.00;99597.53;4956254;29;20558;-82
2021/08/08 08:57:55;;;;;;;6.25;3.45;;;;;;;15.27;100.00;99607.25;4955870;28;20126;-82
2021/08/08 09:00:24;;;;;;;6.75;3.05;;;;;;;15.16;100.00;99618.28;4955614;29;20027;-82
2021/08/08 09:02:51;;;;;;;9.85;3.60;;;;;;;14.94;100.00;99615.94;4957514;28;20031;-82
2021/08/08 09:05:16;;;;;;;10.05;3.88;;;;;;;15.08;100.00;99617.84;4957474;28;20027;-82
2021/08/08 09:07:41;;;;;;;7.18;3.85;;;;;;;14.89;100.00;99621.41;4957937;28;20027;-82
2021/08/08 09:10:14;;;;;;;6.35;3.35;;;;;;;14.99;100.00;99621.75;4956762;28;20039;-81
2021/08/08 09:12:40;;;;;;;8.05;3.75;;;;;;;15.07;100.00;99624.00;4956924;28;20098;-82
2021/08/08 09:15:08;;;;;;;10.20;4.28;;;;;;;15.14;100.00;99638.41;4956031;29;20062;-82
2021/08/08 09:17:38;;;;;;;11.88;4.55;;;;;;;15.02;100.00;99641.66;4955176;29;20023;-82
2021/08/08 09:20:05;;;;;;;10.00;4.00;;;;;;;14.84;100.00;99644.31;4955356;28;20023;-82
2021/08/08 09:22:30;;;;;;;11.95;4.50;;;;;;;14.77;100.00;99645.50;4955605;29;20059;-82
2021/08/08 09:24:57;;;;;;;15.05;4.47;;;;;;;14.70;100.00;99650.19;4957371;28;20503;-82
2021/08/08 09:27:31;;;;;;;14.95;5.18;;;;;;;14.67;100.00;99652.13;4956843;29;20055;-83
2021/08/08 09:29:56;;;;;;;12.95;4.55;;;;;;;14.84;100.00;99657.34;4959830;28;20109;-83
2021/08/08 09:32:28;;;;;;;11.55;4.97;;;;;;;14.77;100.00;99652.50;4961202;29;20078;-83
2021/08/08 09:35:04;;;;;;;15.07;4.55;;;;;;;14.99;100.00;99657.47;4961530;28;20480;-82
2021/08/08 09:37:29;;;;;;;11.38;4.85;;;;;;;15.03;100.00;99662.47;4960386;29;20027;-83
2021/08/08 09:39:54;;;;;;;12.23;4.88;;;;;;;15.20;100.00;99666.84;4961014;28;20507;-83
2021/08/08 09:42:27;;;;;;;12.70;4.53;;;;;;;15.28;100.00;99669.91;4961339;29;20048;-83
2021/08/08 09:44:57;;;;;;;13.93;4.50;;;;;;;15.22;100.00;99672.00;4961949;28;20031;-83
2021/08/08 09:47:39;;;;;;;11.30;4.50;;;;;;;15.00;100.00;99675.69;4960943;29;20058;-83
2021/08/08 09:50:07;;;;;;;13.93;4.22;;;;;;;15.06;100.00;99685.00;4959510;28;20027;-82
2021/08/08 09:52:34;;;;;;;11.98;4.82;;;;;;;14.87;100.00;99683.31;4962733;28;20019;-83
2021/08/08 09:54:59;;;;;;;13.43;5.07;;;;;;;14.93;100.00;99685.63;4962521;28;20495;-83
2021/08/08 09:57:25;;;;;;;14.10;4.53;;;;;;;15.00;100.00;99688.75;4960753;29;20035;-83
2021/08/08 09:59:51;;;;;;;14.75;4.60;;;;;;;14.85;100.00;99694.75;4959773;28;20019;-83
2021/08/08 10:02:19;;;;;;;13.30;4.70;;;;;;;14.91;100.00;99695.28;4961512;28;20436;-83
2021/08/08 10:04:45;;;;;;;11.23;4.20;;;;;;;14.85;100.00;99706.03;4959307;29;20038;-82
2021/08/08 10:07:11;;;;;;;11.93;5.00;;;;;;;14.88;100.00;99705.88;4959827;29;20031;-82
2021/08/08 10:09:38;;;;;;;8.73;4.72;;;;;;;14.75;100.00;99712.63;4957978;28;20038;-83
2021/08/08 10:12:27;;;;;;;15.80;4.97;;;;;;;14.79;100.00;99718.53;4957493;29;20075;-83
2021/08/08 10:14:55;;;;;;;13.80;4.93;;;;;;;14.99;100.00;99714.94;4957045;29;20082;-84
2021/08/08 10:17:21;;;;;;;11.45;4.50;;;;;;;15.05;100.00;99715.47;4956829;29;20023;-83
2021/08/08 10:19:50;;;;;;;18.20;4.93;;;;;;;15.25;100.00;99718.84;4956608;28;20025;-83
2021/08/08 10:22:18;;;;;;;8.88;4.82;;;;;;;15.78;100.00;99715.25;4957632;28;20393;-83
2021/08/08 10:24:44;;;;;;;15.55;5.15;;;;;;;16.01;100.00;99714.00;4957075;29;20392;-83
2021/08/08 10:27:09;;;;;;;11.88;3.95;;;;;;;16.18;100.00;99718.31;4956813;29;20126;-83
2021/08/08 10:29:35;;;;;;;13.30;4.40;;;;;;;17.68;100.00;99713.09;4956934;28;20071;-83
2021/08/08 10:32:00;;;;;;;9.70;4.45;;;;;;;18.70;100.00;99715.44;4957321;29;20019;-83
2021/08/08 10:34:30;;;;;;;11.38;4.10;;;;;;;19.40;100.00;99707.28;4957283;29;20481;-83
2021/08/08 10:37:07;;;;;;;9.15;3.53;;;;;;;18.84;100.00;99704.03;4958196;28;20488;-83
2021/08/08 10:39:40;;;;;;;13.65;3.85;;;;;;;19.02;100.00;99708.06;4958639;28;20035;-83
2021/08/08 10:42:05;;;;;;;10.98;3.90;;;;;;;19.24;100.00;99699.63;4956842;28;20031;-83
2021/08/08 10:44:30;;;;;;;11.65;3.38;;;;;;;19.99;100.00;99704.94;4956471;29;20034;-83
2021/08/08 10:46:56;;;;;;;9.20;3.30;;;;;;;20.40;100.00;99706.38;4956771;29;20114;-83
2021/08/08 10:49:28;;;;;;;13.70;3.30;;;;;;;20.77;100.00;99708.16;4958228;28;20082;-83
2021/08/08 10:51:57;;;;;;;15.70;4.00;;;;;;;20.38;100.00;99700.41;4957364;29;20023;-83
2021/08/08 10:54:23;;;;;;;10.52;3.40;;;;;;;20.52;100.00;99709.94;4957603;29;20029;-83
2021/08/08 10:56:48;;;;;;;11.13;3.72;;;;;;;19.07;100.00;99719.13;4958827;28;20102;-83
2021/08/08 10:59:19;;;;;;;13.15;3.78;;;;;;;19.92;100.00;99723.88;4958203;28;20086;-83
2021/08/08 11:01:45;;;;;;;13.00;3.20;;;;;;;19.58;100.00;99712.22;4957776;28;20572;-83
2021/08/08 11:04:11;;;;;;;11.43;3.28;;;;;;;19.94;100.00;99720.22;4957582;28;20114;-83
2021/08/08 11:06:37;;;;;;;12.55;3.17;;;;;;;20.38;100.00;99720.59;4958371;28;20058;-83
2021/08/08 11:09:04;;;;;;;13.68;3.30;;;;;;;20.40;100.00;99722.19;4957043;28;20510;-83
2021/08/08 11:11:32;;;;;;;10.50;2.90;;;;;;;21.59;100.00;99717.72;4958514;28;20034;-83
2021/08/08 11:14:08;;;;;;;9.70;3.22;;;;;;;21.63;99.49;99725.41;4956606;29;20133;-83
2021/08/08 11:16:33;;;;;;;8.68;2.85;;;;;;;20.14;100.00;99726.69;4956649;29;20027;-83
2021/08/08 11:18:58;;;;;;;12.35;3.40;;;;;;;18.88;100.00;99733.63;4956515;28;20618;-83